createdAt,value
2023-05-14T00:00:10.198Z,8.13
2023-05-14T00:02:56.486Z,7.88
2023-05-14T00:05:43.124Z,8.38
2023-05-14T00:08:29.432Z,8.43
2023-05-14T00:11:15.057Z,8.02
2023-05-14T00:14:00.998Z,8.30
2023-05-14T00:16:46.944Z,9.05
2023-05-14T00:19:32.755Z,8.82
2023-05-14T00:22:19.207Z,8.90
2023-05-14T00:25:05.869Z,9.07
2023-05-14T00:27:51.562Z,8.52
2023-05-14T00:30:37.672Z,7.30
2023-05-14T00:33:24.177Z,7.78
2023-05-14T00:36:10.116Z,8.25
2023-05-14T00:38:56.394Z,7.78
2023-05-14T00:41:42.335Z,8.40
2023-05-14T00:44:27.801Z,8.80
2023-05-14T00:47:13.913Z,9.57
2023-05-14T00:49:59.575Z,8.88
2023-05-14T00:52:45.682Z,9.05
2023-05-14T00:55:31.592Z,8.82
2023-05-14T00:58:19.943Z,9.93
2023-05-14T01:01:06.657Z,9.40
2023-05-14T01:03:54.428Z,10.18
2023-05-14T01:07:34.352Z,9.20
2023-05-14T01:10:31.531Z,9.60
2023-05-14T01:13:28.668Z,9.15
2023-05-14T01:16:19.612Z,9.82
2023-05-14T01:19:10.514Z,9.20
2023-05-14T01:21:56.698Z,9.60
2023-05-14T01:24:42.524Z,9.15
2023-05-14T01:27:46.856Z,9.15
2023-05-14T01:30:53.090Z,8.60
2023-05-14T01:33:42.007Z,9.65
2023-05-14T01:36:29.247Z,14.18
2023-05-14T01:39:15.784Z,10.05
2023-05-14T01:42:01.977Z,9.55
2023-05-14T01:44:47.764Z,9.13
2023-05-14T01:47:34.516Z,18.35
2023-05-14T01:50:20.395Z,12.50
2023-05-14T01:53:06.313Z,12.40
2023-05-14T01:55:52.653Z,11.23
2023-05-14T01:58:38.340Z,10.35
2023-05-14T02:01:26.334Z,11.18
2023-05-14T02:04:12.109Z,10.38
2023-05-14T02:07:00.570Z,10.20
2023-05-14T02:09:47.092Z,10.60
2023-05-14T02:12:33.389Z,10.63
2023-05-14T02:15:19.202Z,11.27
2023-05-14T02:18:04.732Z,11.27
2023-05-14T02:20:50.657Z,10.55
2023-05-14T02:23:41.579Z,10.30
2023-05-14T02:26:28.408Z,9.35
2023-05-14T02:29:15.392Z,9.90
2023-05-14T02:32:01.416Z,9.45
2023-05-14T02:34:47.215Z,9.50
2023-05-14T02:37:33.279Z,9.90
2023-05-14T02:40:19.411Z,9.75
2023-05-14T02:43:05.061Z,10.13
2023-05-14T02:45:50.609Z,10.52
2023-05-14T02:48:37.286Z,9.48
2023-05-14T02:51:23.602Z,9.05
2023-05-14T02:54:09.420Z,10.20
2023-05-14T02:56:55.148Z,11.13
2023-05-14T02:59:41.950Z,9.65
2023-05-14T03:02:28.257Z,10.00
2023-05-14T03:05:15.014Z,10.45
2023-05-14T03:08:01.473Z,9.77
2023-05-14T03:10:48.103Z,9.90
2023-05-14T03:13:33.944Z,10.25
2023-05-14T03:16:20.051Z,10.30
2023-05-14T03:19:07.294Z,9.68
2023-05-14T03:21:53.880Z,10.32
2023-05-14T03:24:42.893Z,9.85
2023-05-14T03:27:29.548Z,12.43
2023-05-14T03:30:15.585Z,10.63
2023-05-14T03:33:02.221Z,10.63
2023-05-14T03:35:48.252Z,10.93
2023-05-14T03:38:34.037Z,11.52
2023-05-14T03:41:20.665Z,11.05
2023-05-14T03:44:06.851Z,11.48
2023-05-14T03:46:53.035Z,11.30
2023-05-14T03:49:39.766Z,14.05
2023-05-14T03:52:28.490Z,11.60
2023-05-14T03:55:14.441Z,11.63
2023-05-14T03:58:02.668Z,11.38
2023-05-14T04:00:48.657Z,10.88
2023-05-14T04:03:34.667Z,10.93
2023-05-14T04:06:20.995Z,11.35
2023-05-14T04:09:06.911Z,11.20
2023-05-14T04:11:54.004Z,13.13
2023-05-14T04:14:40.980Z,11.38
2023-05-14T04:17:26.546Z,11.00
2023-05-14T04:20:12.404Z,11.40
2023-05-14T04:22:58.572Z,11.45
2023-05-14T04:25:44.430Z,10.60
2023-05-14T04:28:30.942Z,11.43
2023-05-14T04:31:17.071Z,11.88
2023-05-14T04:34:04.107Z,11.00
2023-05-14T04:36:50.048Z,12.27
2023-05-14T04:39:37.637Z,12.15
2023-05-14T04:42:23.663Z,11.95
2023-05-14T04:45:10.708Z,11.98
2023-05-14T04:47:56.429Z,11.40
2023-05-14T04:50:44.717Z,11.27
2023-05-14T04:53:30.407Z,12.00
2023-05-14T04:56:16.439Z,13.25
2023-05-14T04:59:02.666Z,12.45
2023-05-14T05:01:48.650Z,11.98
2023-05-14T05:04:35.056Z,12.73
2023-05-14T05:07:22.137Z,11.25
2023-05-14T05:10:09.882Z,12.18
2023-05-14T05:12:55.809Z,11.52
2023-05-14T05:15:43.652Z,12.32
2023-05-14T05:18:29.608Z,11.45
2023-05-14T05:21:16.004Z,11.65
2023-05-14T05:24:01.971Z,10.15
2023-05-14T05:26:48.762Z,11.07
2023-05-14T05:29:35.908Z,11.18
2023-05-14T05:32:23.448Z,11.57
2023-05-14T05:35:10.859Z,10.75
2023-05-14T05:38:00.495Z,10.07
2023-05-14T05:40:49.059Z,9.50
2023-05-14T05:43:35.494Z,10.32
2023-05-14T05:46:51.795Z,8.30
2023-05-14T05:49:39.071Z,9.60
2023-05-14T05:55:11.166Z,8.95
2023-05-14T05:58:00.051Z,9.45
2023-05-14T06:00:49.858Z,11.23
2023-05-14T06:03:36.210Z,9.32
2023-05-14T06:06:22.223Z,10.25
2023-05-14T06:09:09.669Z,8.45
2023-05-14T06:11:55.741Z,9.25
2023-05-14T06:14:40.949Z,9.60
2023-05-14T06:17:27.258Z,8.63
2023-05-14T06:20:14.235Z,8.85
2023-05-14T06:23:01.869Z,8.43
2023-05-14T06:25:49.520Z,8.35
2023-05-14T06:28:36.752Z,8.07
2023-05-14T06:31:22.251Z,9.52
2023-05-14T06:34:08.264Z,8.50
2023-05-14T06:36:54.486Z,8.52
2023-05-14T06:39:40.407Z,8.80
2023-05-14T06:42:26.636Z,7.82
2023-05-14T06:45:12.549Z,8.30
2023-05-14T06:47:58.160Z,7.75
2023-05-14T06:50:44.421Z,7.88
2023-05-14T06:53:30.060Z,7.35
2023-05-14T06:56:15.462Z,7.93
2023-05-14T06:59:01.298Z,7.63
2023-05-14T07:01:46.961Z,8.25
2023-05-14T07:04:32.636Z,8.07
2023-05-14T07:07:20.750Z,7.28
2023-05-14T07:10:08.287Z,9.07
2023-05-14T07:15:40.172Z,8.00
2023-05-14T07:18:25.988Z,7.25
2023-05-14T07:21:12.077Z,7.72
2023-05-14T07:23:57.835Z,7.25
2023-05-14T07:26:43.334Z,7.40
2023-05-14T07:29:30.502Z,6.85
2023-05-14T07:32:16.431Z,7.07
2023-05-14T07:35:02.160Z,7.00
2023-05-14T07:37:47.702Z,7.13
2023-05-14T07:40:33.230Z,6.45
2023-05-14T07:43:19.880Z,6.88
2023-05-14T07:46:06.123Z,6.95
2023-05-14T07:48:51.929Z,6.20
2023-05-14T07:51:37.541Z,6.63
2023-05-14T07:54:23.418Z,6.68
2023-05-14T07:57:10.299Z,6.68
2023-05-14T07:59:56.898Z,6.95
2023-05-14T08:02:43.272Z,6.45
2023-05-14T08:05:29.171Z,6.43
2023-05-14T08:08:14.724Z,6.45
2023-05-14T08:11:01.449Z,6.05
2023-05-14T08:13:47.613Z,6.13
2023-05-14T08:16:34.205Z,6.22
2023-05-14T08:19:20.318Z,5.93
2023-05-14T08:22:06.481Z,5.85
2023-05-14T08:24:51.798Z,6.15
2023-05-14T08:27:37.457Z,5.97
2023-05-14T08:30:23.944Z,5.75
2023-05-14T08:33:10.147Z,6.07
2023-05-14T08:35:56.714Z,5.75
2023-05-14T08:38:44.377Z,6.13
2023-05-14T08:41:30.499Z,5.45
2023-05-14T08:44:20.513Z,6.13
2023-05-14T08:47:07.088Z,5.40
2023-05-14T08:49:59.186Z,5.80
2023-05-14T08:52:45.837Z,6.30
2023-05-14T08:55:33.974Z,5.55
2023-05-14T08:58:21.251Z,5.22
2023-05-14T09:01:08.476Z,5.30
2023-05-14T09:03:54.789Z,5.40
2023-05-14T09:06:42.577Z,5.82
2023-05-14T09:09:28.724Z,5.18
2023-05-14T09:12:14.808Z,4.95
2023-05-14T09:15:00.488Z,5.13
2023-05-14T09:17:48.131Z,5.22
2023-05-14T09:20:34.678Z,5.38
2023-05-14T09:23:20.583Z,5.10
2023-05-14T09:26:06.300Z,5.35
2023-05-14T09:29:01.885Z,4.88
2023-05-14T09:31:50.506Z,4.88
2023-05-14T09:34:39.322Z,5.13
2023-05-14T09:37:26.159Z,5.10
2023-05-14T09:40:13.406Z,5.13
2023-05-14T09:42:59.091Z,4.57
2023-05-14T09:45:45.015Z,5.15
2023-05-14T09:48:30.936Z,4.72
2023-05-14T09:51:21.094Z,4.70
2023-05-14T09:54:07.948Z,4.75
2023-05-14T09:56:55.893Z,4.90
2023-05-14T09:59:41.998Z,4.63
2023-05-14T10:02:34.108Z,4.72
2023-05-14T10:05:21.371Z,4.95
2023-05-14T10:08:28.296Z,4.78
2023-05-14T10:11:16.032Z,4.90
2023-05-14T10:14:08.924Z,4.93
2023-05-14T10:16:56.705Z,4.63
2023-05-14T10:19:42.448Z,5.22
2023-05-14T10:22:34.961Z,4.85
2023-05-14T10:25:20.909Z,4.25
2023-05-14T10:28:07.830Z,4.82
2023-05-14T10:30:54.566Z,4.60
2023-05-14T10:33:49.480Z,5.15
2023-05-14T10:36:38.993Z,4.43
2023-05-14T10:39:54.108Z,5.65
2023-05-14T10:42:41.156Z,5.07
2023-05-14T10:45:27.429Z,4.55
2023-05-14T10:48:13.484Z,4.45
2023-05-14T10:51:02.530Z,3.65
2023-05-14T10:56:35.192Z,4.60
2023-05-14T10:59:27.398Z,4.18
2023-05-14T11:02:26.155Z,4.95
2023-05-14T11:05:18.023Z,4.47
2023-05-14T11:08:07.842Z,4.25
2023-05-14T11:10:56.031Z,4.25
2023-05-14T11:13:42.324Z,4.55
2023-05-14T11:16:31.286Z,4.63
2023-05-14T11:19:22.305Z,4.45
2023-05-14T11:22:08.887Z,4.35
2023-05-14T11:24:54.572Z,4.60
2023-05-14T11:27:41.578Z,4.30
2023-05-14T11:30:30.141Z,4.63
2023-05-14T11:33:16.516Z,4.25
2023-05-14T11:36:02.439Z,4.63
2023-05-14T11:38:49.203Z,4.65
2023-05-14T11:41:35.818Z,4.28
2023-05-14T11:44:24.046Z,4.70
2023-05-14T11:47:11.145Z,4.15
2023-05-14T11:49:59.899Z,4.38
2023-05-14T11:52:52.350Z,4.30
2023-05-14T11:55:40.139Z,4.38
2023-05-14T12:01:13.517Z,4.00
2023-05-14T12:04:00.904Z,5.13
2023-05-14T12:06:52.184Z,4.65
2023-05-14T12:09:45.004Z,4.43
2023-05-14T12:12:36.332Z,4.68
2023-05-14T12:15:25.306Z,4.70
2023-05-14T12:18:23.391Z,4.47
2023-05-14T12:21:09.634Z,4.88
2023-05-14T12:24:02.663Z,4.88
2023-05-14T12:26:49.864Z,4.75
2023-05-14T12:29:38.008Z,4.90
2023-05-14T12:32:26.413Z,4.35
2023-05-14T12:35:12.722Z,4.63
2023-05-14T12:37:58.616Z,5.20
2023-05-14T12:40:44.727Z,4.38
2023-05-14T12:43:32.259Z,4.40
2023-05-14T12:49:07.074Z,3.90
2023-05-14T12:51:59.658Z,5.68
2023-05-14T12:54:45.740Z,4.07
2023-05-14T12:57:31.261Z,3.25
2023-05-14T13:00:17.499Z,4.55
2023-05-14T13:03:03.299Z,4.55
2023-05-14T13:05:48.921Z,4.38
2023-05-14T13:08:35.500Z,4.43
2023-05-14T13:11:22.084Z,2.90
2023-05-14T13:14:08.371Z,4.82
2023-05-14T13:16:54.454Z,3.97
2023-05-14T13:19:40.370Z,2.75
2023-05-14T13:22:26.207Z,3.85
2023-05-14T13:25:12.872Z,3.85
2023-05-14T13:27:58.577Z,3.50
2023-05-14T13:31:04.161Z,2.50
2023-05-14T13:33:49.777Z,2.05
2023-05-14T13:36:39.673Z,2.08
2023-05-14T13:39:27.293Z,1.90
2023-05-14T13:42:13.739Z,3.38
2023-05-14T13:45:00.265Z,3.55
2023-05-14T13:47:46.370Z,3.65
2023-05-14T13:50:32.210Z,3.40
2023-05-14T13:53:19.367Z,3.35
2023-05-14T13:59:00.311Z,1.83
2023-05-14T14:04:32.156Z,2.40
2023-05-14T14:07:18.946Z,2.20
2023-05-14T14:10:06.010Z,2.90
2023-05-14T14:12:52.091Z,2.50
2023-05-14T14:15:37.904Z,3.65
2023-05-14T14:18:23.935Z,3.38
2023-05-14T14:21:10.584Z,3.70
2023-05-14T14:23:56.755Z,3.13
2023-05-14T14:26:43.304Z,4.10
2023-05-14T14:29:31.573Z,3.22
2023-05-14T14:32:17.007Z,2.30
2023-05-14T14:35:03.282Z,2.78
2023-05-14T14:37:50.819Z,3.25
2023-05-14T14:40:36.676Z,2.60
2023-05-14T14:43:23.170Z,2.85
2023-05-14T14:46:09.813Z,3.40
2023-05-14T14:48:55.473Z,3.05
2023-05-14T14:51:41.647Z,3.55
2023-05-14T14:54:28.610Z,2.90
2023-05-14T14:57:14.960Z,3.40
2023-05-14T15:00:02.342Z,3.25
2023-05-14T15:02:48.525Z,3.45
2023-05-14T15:05:36.641Z,3.15
2023-05-14T15:08:28.344Z,3.10
2023-05-14T15:11:14.721Z,3.28
2023-05-14T15:14:00.745Z,3.58
2023-05-14T15:16:50.821Z,3.08
2023-05-14T15:19:36.819Z,2.90
2023-05-14T15:22:29.006Z,3.15
2023-05-14T15:25:16.592Z,2.95
2023-05-14T15:28:04.005Z,3.20
2023-05-14T15:30:51.080Z,3.00
2023-05-14T15:33:37.424Z,3.00
2023-05-14T15:36:22.979Z,3.65
2023-05-14T15:39:10.504Z,3.22
2023-05-14T15:41:56.708Z,3.35
2023-05-14T15:44:42.276Z,3.55
2023-05-14T15:47:29.338Z,3.40
2023-05-14T15:50:15.652Z,3.40
2023-05-14T15:53:01.539Z,3.08
2023-05-14T15:55:51.088Z,3.38
2023-05-14T15:58:37.376Z,3.10
2023-05-14T16:01:23.681Z,3.50
2023-05-14T16:04:11.902Z,4.05
2023-05-14T16:07:07.369Z,4.15
2023-05-14T16:09:56.860Z,4.70
2023-05-14T16:12:45.825Z,4.00
2023-05-14T16:15:33.169Z,4.95
2023-05-14T16:18:20.039Z,4.28
2023-05-14T16:21:06.882Z,4.32
2023-05-14T16:23:53.304Z,4.10
2023-05-14T16:26:42.485Z,4.03
2023-05-14T16:29:28.504Z,4.22
2023-05-14T16:32:15.772Z,4.60
2023-05-14T16:35:03.263Z,4.30
2023-05-14T16:37:50.412Z,5.00
2023-05-14T16:40:36.628Z,4.10
2023-05-14T16:43:22.904Z,4.20
2023-05-14T16:46:08.846Z,3.92
2023-05-14T16:48:54.977Z,3.65
2023-05-14T16:51:47.418Z,2.97
2023-05-14T16:54:33.503Z,3.53
2023-05-14T16:57:20.670Z,3.75
2023-05-14T17:00:07.984Z,3.60
2023-05-14T17:02:54.678Z,3.67
2023-05-14T17:05:40.608Z,3.22
2023-05-14T17:08:31.927Z,2.88
2023-05-14T17:11:18.944Z,4.38
2023-05-14T17:14:05.441Z,3.58
2023-05-14T17:16:52.781Z,3.40
2023-05-14T17:19:39.201Z,3.83
2023-05-14T17:22:25.113Z,16.75
2023-05-14T17:25:11.053Z,9.73
2023-05-14T17:27:57.745Z,9.95
2023-05-14T17:30:44.096Z,8.80
2023-05-14T17:33:30.185Z,9.43
2023-05-14T17:36:16.399Z,13.05
2023-05-14T17:39:02.733Z,8.55
2023-05-14T17:41:48.413Z,8.77
2023-05-14T17:44:34.987Z,5.00
2023-05-14T17:47:23.405Z,8.48
2023-05-14T17:50:16.042Z,7.85
2023-05-14T17:53:02.762Z,6.38
2023-05-14T17:55:50.507Z,7.13
2023-05-14T17:58:36.571Z,8.23
2023-05-14T18:01:44.930Z,8.43
2023-05-14T18:04:31.927Z,8.60
2023-05-14T18:07:19.249Z,8.55
2023-05-14T18:10:05.505Z,11.20
2023-05-14T18:12:51.421Z,16.27
2023-05-14T18:15:37.801Z,15.32
2023-05-14T18:18:24.421Z,15.93
2023-05-14T18:21:09.942Z,14.65
2023-05-14T18:23:55.823Z,9.50
2023-05-14T18:26:41.624Z,14.93
2023-05-14T18:29:27.537Z,10.43
2023-05-14T18:32:13.284Z,14.10
2023-05-14T18:34:58.992Z,12.73
2023-05-14T18:37:46.310Z,13.25
2023-05-14T18:40:31.800Z,17.80
2023-05-14T18:43:18.603Z,13.05
2023-05-14T18:46:04.894Z,14.07
2023-05-14T18:48:51.260Z,10.35
2023-05-14T18:51:36.899Z,12.05
2023-05-14T18:54:22.559Z,11.70
2023-05-14T18:57:16.687Z,12.52
2023-05-14T19:00:03.348Z,11.77
2023-05-14T19:02:50.865Z,11.38
2023-05-14T19:05:36.916Z,10.18
2023-05-14T19:08:22.648Z,9.65
2023-05-14T19:11:09.756Z,10.25
2023-05-14T19:13:55.779Z,9.73
2023-05-14T19:16:45.025Z,11.18
2023-05-14T19:19:36.208Z,10.38
2023-05-14T19:22:25.425Z,8.32
2023-05-14T19:25:12.531Z,9.63
2023-05-14T19:28:01.804Z,11.30
2023-05-14T19:30:48.262Z,10.65
2023-05-14T19:33:35.973Z,11.45
2023-05-14T19:36:25.988Z,11.38
2023-05-14T19:39:13.026Z,10.30
2023-05-14T19:41:59.833Z,10.45
2023-05-14T19:44:47.870Z,12.40
2023-05-14T19:47:33.794Z,11.82
2023-05-14T19:50:20.053Z,11.30
2023-05-14T19:53:06.004Z,10.52
2023-05-14T19:55:51.883Z,15.18
2023-05-14T19:58:38.300Z,10.77
2023-05-14T20:01:31.203Z,9.30
2023-05-14T20:04:23.840Z,9.45
2023-05-14T20:07:12.417Z,9.23
2023-05-14T20:09:58.867Z,9.20
2023-05-14T20:12:47.504Z,10.13
2023-05-14T20:15:36.308Z,9.20
2023-05-14T20:18:38.318Z,8.98
2023-05-14T20:21:37.566Z,8.32
2023-05-14T20:24:25.032Z,9.18
2023-05-14T20:27:10.616Z,9.20
2023-05-14T20:29:56.690Z,9.27
2023-05-14T20:32:43.289Z,9.10
2023-05-14T20:35:29.400Z,10.32
2023-05-14T20:38:15.455Z,9.52
2023-05-14T20:41:01.441Z,8.93
2023-05-14T20:43:49.245Z,7.97
2023-05-14T20:46:35.267Z,9.25
2023-05-14T20:49:22.244Z,8.55
2023-05-14T20:52:08.347Z,7.50
2023-05-14T20:54:54.413Z,7.68
2023-05-14T20:57:40.840Z,7.97
2023-05-14T21:00:29.015Z,7.70
2023-05-14T21:03:16.295Z,7.15
2023-05-14T21:08:48.925Z,6.65
2023-05-14T21:11:34.318Z,6.53
2023-05-14T21:14:20.601Z,6.13
2023-05-14T21:17:06.478Z,5.85
2023-05-14T21:19:52.496Z,6.38
2023-05-14T21:22:38.005Z,5.18
2023-05-14T21:25:25.871Z,6.38
2023-05-14T21:28:12.258Z,5.10
2023-05-14T21:30:58.281Z,5.72
2023-05-14T21:33:44.088Z,6.45
2023-05-14T21:36:32.186Z,5.80
2023-05-14T21:39:20.213Z,5.25
2023-05-14T21:42:06.117Z,6.00
2023-05-14T21:44:52.085Z,6.38
2023-05-14T21:47:37.864Z,6.90
2023-05-14T21:50:24.344Z,6.53
2023-05-14T21:53:10.244Z,6.00
2023-05-14T21:55:55.920Z,5.88
2023-05-14T21:58:41.839Z,5.97
2023-05-14T22:01:27.574Z,6.15
2023-05-14T22:04:13.898Z,6.13
2023-05-14T22:07:00.371Z,5.75
2023-05-14T22:09:46.117Z,5.53
2023-05-14T22:12:31.790Z,5.72
2023-05-14T22:15:17.677Z,6.03
2023-05-14T22:18:03.455Z,5.88
2023-05-14T22:20:49.211Z,5.55
2023-05-14T22:23:34.670Z,6.00
2023-05-14T22:26:21.787Z,5.43
2023-05-14T22:29:07.396Z,5.43
2023-05-14T22:31:53.209Z,6.18
2023-05-14T22:34:39.020Z,4.88
2023-05-14T22:37:24.510Z,5.53
2023-05-14T22:40:10.542Z,5.72
2023-05-14T22:42:56.397Z,5.72
2023-05-14T22:45:44.551Z,5.75
2023-05-14T22:51:16.438Z,5.05
2023-05-14T22:54:02.438Z,4.80
2023-05-14T22:56:48.447Z,5.63
2023-05-14T22:59:34.408Z,5.72
2023-05-14T23:02:19.796Z,6.15
2023-05-14T23:05:07.302Z,5.93
2023-05-14T23:07:53.493Z,5.68
2023-05-14T23:10:39.270Z,6.55
2023-05-14T23:13:25.146Z,6.45
2023-05-14T23:16:11.202Z,5.80
2023-05-14T23:18:57.009Z,6.68
2023-05-14T23:21:42.672Z,6.28
2023-05-14T23:24:28.585Z,6.00
2023-05-14T23:27:13.887Z,6.80
2023-05-14T23:29:59.490Z,6.43
2023-05-14T23:32:45.260Z,7.38
2023-05-14T23:35:31.263Z,7.28
2023-05-14T23:38:17.417Z,6.63
2023-05-14T23:41:04.234Z,7.13
2023-05-14T23:43:49.630Z,7.32
2023-05-14T23:46:35.151Z,7.22
2023-05-14T23:49:21.012Z,8.30
2023-05-14T23:52:07.166Z,8.25
2023-05-14T23:54:53.693Z,8.40
2023-05-14T23:57:39.599Z,8.30
